Fox Lake, IL

12:18 AM CDT on May 06, 2015 (GMT -0500)
FoxLaksbchilltop | | Change Station
CLOSE
Current Station
Personal Weather Station
Location: Fox Lake, IL
Elevation: 794 ft
Nearby Weather Stations
Active Advisory: Dense Fog Advisory Active Notice: Local Storm Report

Elev 794 ft 42.39 °N, 88.17 °W | Updated 5 minutes ago

Overcast
Overcast
47.5 °F
Feels Like 47 °F
N
3.2
Wind Variable Wind from NNE

Today
High -- | Low -- °F
--% Chance of Precip.
Yesterday
High -- | Low -- °F
Precip. -- in
5:41 AM 7:57 PM
Waning Gibbous, 96% visible
Pressure 30.24 in
Visibility 10.0 miles
Clouds Overcast 400 ft
Windchill 47 °F
Dew Point 47 °F
Humidity 99%
Rainfall 0.00 in
Snow Depth Not available.
UV 0 out of 12
Pollen .60 out of 12
Air Quality Not available.
Flu Activity Local Activity
METAR KUGN 060455Z AUTO 03007KT 10SM OVC004 07/06 A3022 RMK AO2 SLP239 T00720061

More Conditions Fewer Conditions

Pressure 30.24 in
Visibility 10.0 miles
Clouds Overcast 400 ft
Windchill 47 °F
Dew Point 47 °F
Humidity 99%
Rainfall 0.00 in
Snow Depth Not available.
UV 0 out of 12
Pollen .60 out of 12
Air Quality Not available.
Flu Activity Local Activity
METAR KUGN 060455Z AUTO 03007KT 10SM OVC004 07/06 A3022 RMK AO2 SLP239 T00720061

More Conditions Fewer Conditions

10-Day Weather Forecast

Almanac

Astronomy

May. 06, 2015 Rise Set
Actual Time
Civil Twilight
Nautical Twilight
Astronomical Twilight
Moon
Length of Visible Light
Length of Day
Tomorrow will be .
, % of the Moon is Illuminated

Today's Extremes

State Highs State Lows

Community

WunderPhotos

Upload Photos

1,818,838 photos uploaded!

WunderBlogs® & News

Nearby

Air Quality

  Air Quality AQ Index Pollutant
Not available.

Snow Depth

Station Depth Elevation

Earthquake Activity

City Distance Mag. Time & Date
Minimum magnitude displayed is 2.5.

Coastal Water Temperatures

Place Temperature

Stations

Nearby Weather Stations

Station Location Temp. Windchill Dew Point Humidity Wind Precip. Elev Updated Type
                   
Dense Fog Advisory
Statement as of 9:14 PM CDT on May 05, 2015

... Dense fog advisory remains in effect until 11 am CDT
Wednesday...

* visibility... a quarter mile or less... especially near Lake
Michigan. Dense fog may develop farther inland this evening.

* Impacts... very low visibilities will make travel hazardous.

Precautionary/preparedness actions...

A dense fog advisory means visibilities will frequently be
reduced to less than one quarter mile. If driving... slow down...
use your headlights... and leave plenty of distance ahead of you.



Beachler